createdAt,value
2023-04-15T00:00:10.846Z,96920.69
2023-04-15T00:03:02.532Z,96921.34
2023-04-15T00:05:31.792Z,96918.90
2023-04-15T00:08:01.590Z,96917.54
2023-04-15T00:10:29.654Z,96916.69
2023-04-15T00:12:57.737Z,96916.70
2023-04-15T00:15:25.913Z,96918.55
2023-04-15T00:17:54.242Z,96915.35
2023-04-15T00:20:22.782Z,96919.40
2023-04-15T00:22:50.833Z,96926.64
2023-04-15T00:25:18.913Z,96929.98
2023-04-15T00:27:46.977Z,96933.62
2023-04-15T00:30:16.284Z,96936.23
2023-04-15T00:32:44.879Z,96936.63
2023-04-15T00:35:13.039Z,96939.49
2023-04-15T00:37:41.217Z,96935.04
2023-04-15T00:40:14.019Z,96933.49
2023-04-15T00:42:42.168Z,96935.55
2023-04-15T00:45:11.258Z,96936.91
2023-04-15T00:47:42.431Z,96935.35
2023-04-15T00:50:12.790Z,96933.89
2023-04-15T00:52:41.732Z,96940.55
2023-04-15T00:55:10.209Z,96932.38
2023-04-15T00:57:40.016Z,96931.66
2023-04-15T01:00:09.504Z,96932.46
2023-04-15T01:02:39.335Z,96929.42
2023-04-15T01:05:08.678Z,96926.63
2023-04-15T01:07:36.966Z,96926.13
2023-04-15T01:10:05.632Z,96921.70
2023-04-15T01:12:34.494Z,96923.67
2023-04-15T01:15:02.763Z,96926.30
2023-04-15T01:17:31.075Z,96926.52
2023-04-15T01:20:00.066Z,96925.80
2023-04-15T01:22:29.032Z,96927.90
2023-04-15T01:25:10.720Z,96932.98
2023-04-15T01:27:42.659Z,96932.17
2023-04-15T01:30:11.785Z,96926.70
2023-04-15T01:32:39.893Z,96923.65
2023-04-15T01:35:09.037Z,96925.64
2023-04-15T01:37:37.219Z,96930.44
2023-04-15T01:40:06.165Z,96930.66
2023-04-15T01:42:36.682Z,96929.88
2023-04-15T01:45:05.503Z,96924.95
2023-04-15T01:47:33.855Z,96924.66
2023-04-15T01:50:02.096Z,96926.29
2023-04-15T01:52:30.678Z,96929.52
2023-04-15T01:54:58.851Z,96932.04
2023-04-15T01:57:27.229Z,96932.42
2023-04-15T01:59:55.232Z,96934.88
2023-04-15T02:02:23.596Z,96943.02
2023-04-15T02:04:51.851Z,96949.47
2023-04-15T02:07:19.924Z,96947.84
2023-04-15T02:09:47.914Z,96946.73
2023-04-15T02:12:15.963Z,96945.48
2023-04-15T02:14:44.051Z,96941.38
2023-04-15T02:17:12.214Z,96938.14
2023-04-15T02:19:41.296Z,96935.05
2023-04-15T02:22:09.467Z,96931.04
2023-04-15T02:24:37.386Z,96923.44
2023-04-15T02:27:05.415Z,96917.88
2023-04-15T02:29:33.422Z,96918.89
2023-04-15T02:32:02.236Z,96919.52
2023-04-15T02:34:31.681Z,96917.56
2023-04-15T02:36:59.958Z,96914.64
2023-04-15T02:39:28.244Z,96918.32
2023-04-15T02:41:57.030Z,96918.74
2023-04-15T02:44:25.221Z,96916.54
2023-04-15T02:46:55.225Z,96917.94
2023-04-15T02:49:23.417Z,96918.73
2023-04-15T02:51:52.380Z,96915.36
2023-04-15T02:54:22.919Z,96914.33
2023-04-15T02:56:51.197Z,96913.81
2023-04-15T02:59:19.242Z,96914.20
2023-04-15T03:01:47.495Z,96913.80
2023-04-15T03:04:15.879Z,96918.92
2023-04-15T03:06:44.093Z,96926.02
2023-04-15T03:09:12.669Z,96925.52
2023-04-15T03:11:42.237Z,96924.86
2023-04-15T03:14:11.389Z,96924.71
2023-04-15T03:16:42.520Z,96933.16
2023-04-15T03:19:10.921Z,96930.73
2023-04-15T03:21:40.115Z,96932.67
2023-04-15T03:24:08.275Z,96935.88
2023-04-15T03:26:37.159Z,96936.20
2023-04-15T03:29:11.373Z,96939.87
2023-04-15T03:31:42.210Z,96941.97
2023-04-15T03:34:10.190Z,96944.48
2023-04-15T03:36:38.676Z,96954.44
2023-04-15T03:39:06.675Z,96957.23
2023-04-15T03:41:34.706Z,96963.17
2023-04-15T03:44:02.652Z,96966.35
2023-04-15T03:46:30.986Z,96966.06
2023-04-15T03:48:59.540Z,96962.61
2023-04-15T03:51:27.808Z,96961.85
2023-04-15T03:53:56.292Z,96959.67
2023-04-15T03:56:25.378Z,96965.83
2023-04-15T03:58:53.363Z,96968.91
2023-04-15T04:01:21.529Z,96977.25
2023-04-15T04:03:50.109Z,96982.16
2023-04-15T04:06:18.600Z,96983.58
2023-04-15T04:08:46.773Z,96983.78
2023-04-15T04:11:14.840Z,96980.15
2023-04-15T04:13:42.956Z,96980.10
2023-04-15T04:16:11.317Z,96977.11
2023-04-15T04:18:39.415Z,96971.98
2023-04-15T04:21:07.645Z,96966.00
2023-04-15T04:23:35.825Z,96961.36
2023-04-15T04:26:03.989Z,96960.50
2023-04-15T04:28:32.361Z,96963.80
2023-04-15T04:31:00.451Z,96962.48
2023-04-15T04:33:28.474Z,96969.62
2023-04-15T04:35:56.787Z,96973.25
2023-04-15T04:38:25.048Z,96972.86
2023-04-15T04:40:53.136Z,96977.77
2023-04-15T04:43:21.309Z,96979.61
2023-04-15T04:45:49.366Z,96987.09
2023-04-15T04:48:17.656Z,96994.60
2023-04-15T04:50:47.163Z,96994.73
2023-04-15T04:53:15.447Z,96992.33
2023-04-15T04:55:43.510Z,96988.20
2023-04-15T04:58:11.782Z,96987.54
2023-04-15T05:00:40.885Z,96983.38
2023-04-15T05:03:09.503Z,96985.80
2023-04-15T05:05:39.706Z,96985.45
2023-04-15T05:08:08.173Z,96983.52
2023-04-15T05:10:36.590Z,96982.46
2023-04-15T05:13:04.726Z,96982.09
2023-04-15T05:15:33.646Z,96981.98
2023-04-15T05:18:01.865Z,96977.19
2023-04-15T05:20:30.147Z,96975.92
2023-04-15T05:22:58.240Z,96975.20
2023-04-15T05:25:26.310Z,96977.52
2023-04-15T05:27:54.382Z,96981.13
2023-04-15T05:30:22.562Z,96984.85
2023-04-15T05:32:51.163Z,96984.91
2023-04-15T05:35:19.231Z,96984.80
2023-04-15T05:37:47.494Z,96980.73
2023-04-15T05:40:15.794Z,96980.11
2023-04-15T05:42:43.836Z,96981.68
2023-04-15T05:45:12.517Z,96983.38
2023-04-15T05:47:40.505Z,96987.55
2023-04-15T05:50:09.477Z,96989.60
2023-04-15T05:52:37.669Z,96992.85
2023-04-15T05:55:06.647Z,96996.29
2023-04-15T05:57:34.718Z,96996.44
2023-04-15T06:00:02.832Z,96999.42
2023-04-15T06:02:38.024Z,96999.52
2023-04-15T06:05:09.888Z,96999.23
2023-04-15T06:07:38.991Z,97000.12
2023-04-15T06:10:08.035Z,97003.45
2023-04-15T06:12:36.359Z,97000.48
2023-04-15T06:15:06.763Z,97000.80
2023-04-15T06:17:34.906Z,96999.52
2023-04-15T06:20:03.750Z,96998.73
2023-04-15T06:22:31.923Z,96995.52
2023-04-15T06:25:00.213Z,96999.63
2023-04-15T06:27:28.379Z,97003.70
2023-04-15T06:29:56.708Z,97006.77
2023-04-15T06:32:24.858Z,97007.53
2023-04-15T06:34:52.750Z,97011.40
2023-04-15T06:37:20.869Z,97012.02
2023-04-15T06:39:48.936Z,97009.05
2023-04-15T06:42:17.122Z,97010.32
2023-04-15T06:44:45.256Z,97010.30
2023-04-15T06:47:14.813Z,97008.76
2023-04-15T06:49:43.421Z,97013.65
2023-04-15T06:52:11.658Z,97018.67
2023-04-15T06:54:39.804Z,97017.74
2023-04-15T06:57:09.464Z,97018.83
2023-04-15T06:59:37.494Z,97023.56
2023-04-15T07:02:05.790Z,97023.69
2023-04-15T07:04:34.061Z,97023.33
2023-04-15T07:07:02.704Z,97026.81
2023-04-15T07:09:30.809Z,97030.04
2023-04-15T07:11:58.885Z,97029.66
2023-04-15T07:14:28.080Z,97026.80
2023-04-15T07:16:56.608Z,97024.43
2023-04-15T07:19:24.933Z,97025.81
2023-04-15T07:21:53.214Z,97031.58
2023-04-15T07:24:21.388Z,97035.79
2023-04-15T07:26:49.783Z,97038.73
2023-04-15T07:29:17.954Z,97039.07
2023-04-15T07:31:45.895Z,97040.13
2023-04-15T07:34:13.993Z,97037.95
2023-04-15T07:36:42.676Z,97043.03
2023-04-15T07:39:11.160Z,97043.98
2023-04-15T07:41:39.239Z,97042.88
2023-04-15T07:44:07.232Z,97041.27
2023-04-15T07:46:35.567Z,97042.60
2023-04-15T07:49:04.398Z,97045.65
2023-04-15T07:51:33.156Z,97045.59
2023-04-15T07:54:01.226Z,97044.88
2023-04-15T07:56:29.491Z,97044.16
2023-04-15T07:58:57.479Z,97043.46
2023-04-15T08:01:25.536Z,97042.51
2023-04-15T08:03:53.896Z,97039.17
2023-04-15T08:06:22.178Z,97036.92
2023-04-15T08:08:50.474Z,97034.25
2023-04-15T08:11:18.652Z,97035.65
2023-04-15T08:13:47.411Z,97034.33
2023-04-15T08:16:23.665Z,97033.73
2023-04-15T08:18:54.218Z,97037.17
2023-04-15T08:21:22.973Z,97037.77
2023-04-15T08:23:52.684Z,97039.38
2023-04-15T08:26:21.814Z,97038.20
2023-04-15T08:28:50.502Z,97041.82
2023-04-15T08:31:19.431Z,97045.81
2023-04-15T08:33:47.468Z,97046.91
2023-04-15T08:36:15.550Z,97050.29
2023-04-15T08:38:44.751Z,97055.14
2023-04-15T08:41:25.668Z,97052.88
2023-04-15T08:44:04.335Z,97050.40
2023-04-15T08:46:34.973Z,97047.96
2023-04-15T08:49:05.421Z,97045.20
2023-04-15T08:51:34.293Z,97041.20
2023-04-15T08:54:02.968Z,97042.45
2023-04-15T08:56:36.040Z,97044.20
2023-04-15T08:59:05.501Z,97042.07
2023-04-15T09:01:33.837Z,97042.59
2023-04-15T09:04:03.564Z,97041.80
2023-04-15T09:06:31.626Z,97039.63
2023-04-15T09:09:00.147Z,97039.84
2023-04-15T09:11:31.538Z,97038.86
2023-04-15T09:13:59.629Z,97036.48
2023-04-15T09:16:28.633Z,97036.50
2023-04-15T09:18:56.689Z,97041.58
2023-04-15T09:21:25.069Z,97040.06
2023-04-15T09:24:01.973Z,97038.60
2023-04-15T09:26:40.520Z,97032.95
2023-04-15T09:29:13.747Z,97031.36
2023-04-15T09:31:43.610Z,97030.55
2023-04-15T09:34:11.971Z,97030.45
2023-04-15T09:36:51.990Z,97029.63
2023-04-15T09:39:20.786Z,97025.96
2023-04-15T09:42:09.234Z,97029.73
2023-04-15T09:44:37.813Z,97029.25
2023-04-15T09:47:06.403Z,97025.24
2023-04-15T09:49:34.598Z,97028.59
2023-04-15T09:52:05.795Z,97035.38
2023-04-15T09:54:36.654Z,97040.73
2023-04-15T09:57:10.896Z,97047.66
2023-04-15T09:59:39.048Z,97050.07
2023-04-15T10:02:09.984Z,97042.52
2023-04-15T10:04:41.728Z,97044.77
2023-04-15T10:07:13.013Z,97046.42
2023-04-15T10:09:41.885Z,97042.11
2023-04-15T10:12:10.474Z,97037.09
2023-04-15T10:14:39.131Z,97029.27
2023-04-15T10:17:11.169Z,97021.73
2023-04-15T10:19:39.293Z,97017.49
2023-04-15T10:22:08.322Z,97015.35
2023-04-15T10:24:39.116Z,97012.69
2023-04-15T10:27:07.993Z,97008.52
2023-04-15T10:29:36.702Z,97007.29
2023-04-15T10:32:05.626Z,97001.36
2023-04-15T10:34:34.891Z,96996.89
2023-04-15T10:37:06.950Z,96992.69
2023-04-15T10:39:34.977Z,96988.93
2023-04-15T10:42:18.238Z,96984.45
2023-04-15T10:44:53.496Z,96985.29
2023-04-15T10:47:22.403Z,96984.20
2023-04-15T10:49:53.201Z,96983.77
2023-04-15T10:52:28.720Z,96975.88
2023-04-15T10:55:24.207Z,96969.95
2023-04-15T10:57:54.716Z,96970.48
2023-04-15T11:00:26.486Z,96970.22
2023-04-15T11:02:57.121Z,96974.93
2023-04-15T11:05:53.664Z,96975.38
2023-04-15T11:08:53.655Z,96965.90
2023-04-15T11:11:21.934Z,96972.73
2023-04-15T11:13:52.645Z,96976.39
2023-04-15T11:16:21.696Z,96972.51
2023-04-15T11:18:56.528Z,96969.38
2023-04-15T11:21:26.856Z,96968.38
2023-04-15T11:23:55.003Z,96970.02
2023-04-15T11:26:27.422Z,96978.95
2023-04-15T11:28:55.534Z,96987.17
2023-04-15T11:31:28.740Z,96987.16
2023-04-15T11:33:59.506Z,96980.88
2023-04-15T11:36:29.583Z,96978.10
2023-04-15T11:38:59.462Z,96973.60
2023-04-15T11:41:27.680Z,96975.20
2023-04-15T11:43:55.738Z,96975.77
2023-04-15T11:46:31.318Z,96974.02
2023-04-15T11:49:00.338Z,96977.85
2023-04-15T11:51:33.293Z,96980.08
2023-04-15T11:54:01.643Z,96975.68
2023-04-15T11:56:30.078Z,96977.73
2023-04-15T11:59:02.298Z,96976.21
2023-04-15T12:01:40.010Z,96971.20
2023-04-15T12:04:13.674Z,96968.47
2023-04-15T12:06:42.315Z,96972.38
2023-04-15T12:09:12.514Z,96970.76
2023-04-15T12:11:57.580Z,96967.25
2023-04-15T12:14:28.443Z,96966.21
2023-04-15T12:17:05.019Z,96964.86
2023-04-15T12:19:45.746Z,96967.38
2023-04-15T12:22:16.442Z,96968.98
2023-04-15T12:24:48.172Z,96971.85
2023-04-15T12:27:17.731Z,96968.45
2023-04-15T12:29:45.920Z,96967.69
2023-04-15T12:32:16.360Z,96965.18
2023-04-15T12:34:52.082Z,96969.52
2023-04-15T12:37:21.191Z,96972.23
2023-04-15T12:39:50.495Z,96971.30
2023-04-15T12:42:18.980Z,96974.90
2023-04-15T12:44:47.550Z,96974.39
2023-04-15T12:47:15.930Z,96974.46
2023-04-15T12:49:44.002Z,96971.69
2023-04-15T12:52:11.980Z,96972.02
2023-04-15T12:54:40.058Z,96975.30
2023-04-15T12:57:08.436Z,96974.27
2023-04-15T12:59:36.644Z,96969.29
2023-04-15T13:02:05.134Z,96967.55
2023-04-15T13:04:33.549Z,96971.33
2023-04-15T13:07:02.873Z,96965.36
2023-04-15T13:09:31.229Z,96973.19
2023-04-15T13:11:59.543Z,96971.39
2023-04-15T13:14:27.574Z,96969.97
2023-04-15T13:16:55.673Z,96970.77
2023-04-15T13:19:23.752Z,96968.79
2023-04-15T13:21:51.832Z,96973.81
2023-04-15T13:24:19.978Z,96974.91
2023-04-15T13:26:50.140Z,96973.95
2023-04-15T13:29:18.588Z,96971.28
2023-04-15T13:31:46.659Z,96970.24
2023-04-15T13:34:14.821Z,96969.52
2023-04-15T13:36:42.904Z,96971.63
2023-04-15T13:39:10.875Z,96979.54
2023-04-15T13:41:38.939Z,96980.48
2023-04-15T13:44:07.453Z,96982.29
2023-04-15T13:46:35.921Z,96987.51
2023-04-15T13:49:03.969Z,96988.21
2023-04-15T13:51:33.067Z,96996.30
2023-04-15T13:54:01.141Z,97000.16
2023-04-15T13:56:29.821Z,97005.56
2023-04-15T13:59:02.406Z,97011.82
2023-04-15T14:01:30.682Z,97019.55
2023-04-15T14:03:58.812Z,97021.30
2023-04-15T14:06:28.250Z,97027.23
2023-04-15T14:08:56.314Z,97029.27
2023-04-15T14:11:24.592Z,97031.23
2023-04-15T14:13:52.705Z,97029.98
2023-04-15T14:16:21.072Z,97030.68
2023-04-15T14:18:49.221Z,97028.67
2023-04-15T14:21:17.302Z,97024.73
2023-04-15T14:23:45.462Z,97025.21
2023-04-15T14:26:14.278Z,97026.17
2023-04-15T14:28:45.099Z,97028.87
2023-04-15T14:31:14.464Z,97025.81
2023-04-15T14:33:42.675Z,97026.98
2023-04-15T14:36:11.146Z,97031.21
2023-04-15T14:38:40.147Z,97026.15
2023-04-15T14:41:09.527Z,97025.44
2023-04-15T14:43:39.362Z,97023.89
2023-04-15T14:46:08.689Z,97021.56
2023-04-15T14:48:37.395Z,97024.69
2023-04-15T14:51:06.016Z,97020.88
2023-04-15T14:53:34.408Z,97020.95
2023-04-15T14:56:02.376Z,97022.26
2023-04-15T14:58:30.447Z,97019.77
2023-04-15T15:00:59.036Z,97020.33
2023-04-15T15:03:27.356Z,97021.40
2023-04-15T15:05:55.684Z,97024.46
2023-04-15T15:08:24.268Z,97027.45
2023-04-15T15:10:52.344Z,97031.87
2023-04-15T15:13:20.521Z,97034.16
2023-04-15T15:15:51.690Z,97034.50
2023-04-15T15:18:20.149Z,97034.95
2023-04-15T15:20:48.249Z,97031.09
2023-04-15T15:23:16.601Z,97034.47
2023-04-15T15:25:47.399Z,97034.60
2023-04-15T15:28:15.602Z,97040.43
2023-04-15T15:30:43.673Z,97043.38
2023-04-15T15:33:12.271Z,97043.13
2023-04-15T15:35:41.042Z,97048.54
2023-04-15T15:38:11.678Z,97053.45
2023-04-15T15:40:39.863Z,97059.21
2023-04-15T15:43:08.233Z,97062.26
2023-04-15T15:45:36.308Z,97063.85
2023-04-15T15:48:05.200Z,97069.52
2023-04-15T15:50:34.696Z,97073.20
2023-04-15T15:53:02.906Z,97076.79
2023-04-15T15:55:31.559Z,97079.36
2023-04-15T15:57:59.628Z,97089.07
2023-04-15T16:00:27.801Z,97095.63
2023-04-15T16:03:06.825Z,97103.30
2023-04-15T16:05:36.645Z,97110.95
2023-04-15T16:08:05.510Z,97113.83
2023-04-15T16:10:33.917Z,97116.17
2023-04-15T16:13:03.168Z,97121.49
2023-04-15T16:15:31.499Z,97124.84
2023-04-15T16:17:59.690Z,97125.88
2023-04-15T16:20:29.090Z,97129.71
2023-04-15T16:22:58.456Z,97131.56
2023-04-15T16:25:26.549Z,97134.95
2023-04-15T16:28:05.521Z,97137.35
2023-04-15T16:30:38.033Z,97137.68
2023-04-15T16:33:07.793Z,97140.52
2023-04-15T16:35:36.271Z,97140.27
2023-04-15T16:38:04.515Z,97141.41
2023-04-15T16:40:33.204Z,97139.35
2023-04-15T16:43:03.529Z,97141.52
2023-04-15T16:45:31.721Z,97140.52
2023-04-15T16:47:59.795Z,97145.99
2023-04-15T16:50:28.059Z,97150.19
2023-04-15T16:52:56.113Z,97156.08
2023-04-15T16:55:24.219Z,97156.58
2023-04-15T16:58:01.723Z,97157.00
2023-04-15T17:00:33.126Z,97160.80
2023-04-15T17:03:01.789Z,97165.13
2023-04-15T17:05:33.670Z,97167.76
2023-04-15T17:08:01.950Z,97165.96
2023-04-15T17:10:31.369Z,97167.10
2023-04-15T17:13:00.251Z,97172.27
2023-04-15T17:15:28.588Z,97179.02
2023-04-15T17:17:56.712Z,97184.73
2023-04-15T17:20:26.569Z,97186.17
2023-04-15T17:22:54.792Z,97190.11
2023-04-15T17:25:23.265Z,97195.39
2023-04-15T17:27:51.444Z,97200.45
2023-04-15T17:30:19.751Z,97204.77
2023-04-15T17:32:47.911Z,97208.15
2023-04-15T17:35:16.489Z,97209.80
2023-04-15T17:37:44.542Z,97214.73
2023-04-15T17:40:12.922Z,97218.64
2023-04-15T17:42:41.612Z,97228.33
2023-04-15T17:45:10.504Z,97231.61
2023-04-15T17:47:38.629Z,97234.64
2023-04-15T17:50:08.092Z,97239.95
2023-04-15T17:52:36.060Z,97240.77
2023-04-15T17:55:04.735Z,97248.55
2023-04-15T17:57:32.902Z,97254.20
2023-04-15T18:00:00.980Z,97257.77
2023-04-15T18:02:29.163Z,97260.16
2023-04-15T18:04:57.672Z,97263.29
2023-04-15T18:07:26.017Z,97271.45
2023-04-15T18:09:56.073Z,97276.04
2023-04-15T18:12:24.227Z,97281.64
2023-04-15T18:14:52.993Z,97287.76
2023-04-15T18:17:21.255Z,97293.75
2023-04-15T18:19:49.339Z,97300.78
2023-04-15T18:22:17.822Z,97305.94
2023-04-15T18:24:45.853Z,97308.36
2023-04-15T18:27:14.273Z,97316.09
2023-04-15T18:29:43.778Z,97327.15
2023-04-15T18:32:11.758Z,97329.80
2023-04-15T18:34:39.960Z,97333.70
2023-04-15T18:37:08.099Z,97334.85
2023-04-15T18:39:36.166Z,97333.84
2023-04-15T18:42:04.346Z,97334.34
2023-04-15T18:44:32.549Z,97334.60
2023-04-15T18:47:01.530Z,97336.40
2023-04-15T18:49:33.290Z,97340.09
2023-04-15T18:52:01.279Z,97335.31
2023-04-15T18:54:29.313Z,97339.38
2023-04-15T18:56:57.480Z,97342.32
2023-04-15T18:59:29.280Z,97340.71
2023-04-15T19:02:00.284Z,97343.73
2023-04-15T19:04:31.348Z,97343.88
2023-04-15T19:06:59.806Z,97341.65
2023-04-15T19:09:29.511Z,97341.72
2023-04-15T19:11:57.792Z,97342.70
2023-04-15T19:14:26.065Z,97344.80
2023-04-15T19:16:54.387Z,97344.63
2023-04-15T19:19:22.569Z,97343.86
2023-04-15T19:21:51.171Z,97346.77
2023-04-15T19:24:19.889Z,97351.17
2023-04-15T19:26:50.415Z,97353.02
2023-04-15T19:29:18.931Z,97356.08
2023-04-15T19:31:47.172Z,97356.62
2023-04-15T19:34:15.464Z,97356.58
2023-04-15T19:36:43.529Z,97361.25
2023-04-15T19:39:11.800Z,97365.65
2023-04-15T19:41:39.872Z,97370.12
2023-04-15T19:44:08.158Z,97367.97
2023-04-15T19:46:36.242Z,97369.31
2023-04-15T19:49:04.744Z,97375.48
2023-04-15T19:51:33.148Z,97373.25
2023-04-15T19:54:01.485Z,97372.41
2023-04-15T19:56:30.393Z,97376.40
2023-04-15T19:59:00.100Z,97374.67
2023-04-15T20:01:28.354Z,97376.05
2023-04-15T20:03:56.593Z,97376.74
2023-04-15T20:06:25.200Z,97383.54
2023-04-15T20:08:53.263Z,97385.34
2023-04-15T20:11:22.375Z,97388.10
2023-04-15T20:13:50.365Z,97386.71
2023-04-15T20:16:18.333Z,97389.90
2023-04-15T20:18:46.475Z,97393.23
2023-04-15T20:21:14.399Z,97396.88
2023-04-15T20:23:42.709Z,97403.18
2023-04-15T20:26:10.801Z,97405.05
2023-04-15T20:28:38.967Z,97408.41
2023-04-15T20:31:07.124Z,97407.91
2023-04-15T20:33:35.083Z,97407.67
2023-04-15T20:36:03.178Z,97407.34
2023-04-15T20:38:31.358Z,97407.73
2023-04-15T20:40:59.515Z,97408.70
2023-04-15T20:43:27.594Z,97413.44
2023-04-15T20:45:57.537Z,97412.48
2023-04-15T20:48:25.964Z,97409.27
2023-04-15T20:50:54.279Z,97417.15
2023-04-15T20:53:22.649Z,97423.36
2023-04-15T20:55:50.654Z,97422.89
2023-04-15T20:58:18.699Z,97423.92
2023-04-15T21:00:47.333Z,97423.98
2023-04-15T21:03:15.697Z,97428.13
2023-04-15T21:05:44.130Z,97427.50
2023-04-15T21:08:13.025Z,97426.37
2023-04-15T21:10:41.515Z,97426.13
2023-04-15T21:13:09.884Z,97430.40
2023-04-15T21:15:37.984Z,97432.67
2023-04-15T21:18:06.041Z,97433.02
2023-04-15T21:20:34.111Z,97433.43
2023-04-15T21:23:02.173Z,97437.11
2023-04-15T21:25:30.451Z,97435.90
2023-04-15T21:27:58.434Z,97440.41
2023-04-15T21:30:26.587Z,97440.58
2023-04-15T21:32:55.999Z,97438.95
2023-04-15T21:35:24.090Z,97444.23
2023-04-15T21:37:52.137Z,97443.77
2023-04-15T21:40:20.317Z,97445.69
2023-04-15T21:42:49.414Z,97448.48
2023-04-15T21:45:17.687Z,97452.35
2023-04-15T21:48:05.455Z,97456.90
2023-04-15T21:50:33.896Z,97458.95
2023-04-15T21:53:01.968Z,97463.24
2023-04-15T21:55:30.274Z,97466.80
2023-04-15T21:57:58.218Z,97469.28
2023-04-15T22:00:26.287Z,97469.38
2023-04-15T22:02:54.403Z,97471.89
2023-04-15T22:05:22.733Z,97473.73
2023-04-15T22:07:50.801Z,97475.84
2023-04-15T22:10:19.808Z,97478.92
2023-04-15T22:12:47.876Z,97480.99
2023-04-15T22:15:17.086Z,97485.66
2023-04-15T22:17:45.246Z,97482.71
2023-04-15T22:20:13.935Z,97481.95
2023-04-15T22:22:43.941Z,97480.14
2023-04-15T22:25:12.830Z,97484.75
2023-04-15T22:27:41.114Z,97486.41
2023-04-15T22:30:10.716Z,97488.55
2023-04-15T22:32:39.134Z,97489.20
2023-04-15T22:35:07.844Z,97489.57
2023-04-15T22:37:36.160Z,97488.34
2023-04-15T22:40:04.744Z,97492.52
2023-04-15T22:42:32.925Z,97487.84
2023-04-15T22:45:01.111Z,97489.02
2023-04-15T22:47:29.494Z,97488.35
2023-04-15T22:49:57.645Z,97489.45
2023-04-15T22:52:30.542Z,97492.80
2023-04-15T22:54:59.799Z,97495.73
2023-04-15T22:57:28.775Z,97500.41
2023-04-15T22:59:56.899Z,97504.74
2023-04-15T23:02:25.389Z,97501.73
2023-04-15T23:04:54.037Z,97501.11
2023-04-15T23:07:22.238Z,97505.65
2023-04-15T23:09:50.724Z,97506.11
2023-04-15T23:12:18.813Z,97507.12
2023-04-15T23:14:46.864Z,97510.35
2023-04-15T23:17:14.944Z,97511.06
2023-04-15T23:19:43.016Z,97510.26
2023-04-15T23:22:12.303Z,97509.86
2023-04-15T23:24:40.598Z,97510.22
2023-04-15T23:27:08.764Z,97513.73
2023-04-15T23:29:36.824Z,97520.23
2023-04-15T23:32:05.363Z,97521.05
2023-04-15T23:34:33.688Z,97519.53
2023-04-15T23:37:02.046Z,97520.22
2023-04-15T23:39:33.114Z,97520.77
2023-04-15T23:42:01.280Z,97518.11
2023-04-15T23:44:29.353Z,97518.36
2023-04-15T23:46:57.420Z,97520.05
2023-04-15T23:49:25.805Z,97518.75
2023-04-15T23:51:53.984Z,97518.90
2023-04-15T23:54:22.053Z,97517.02
2023-04-15T23:56:50.252Z,97514.10
2023-04-15T23:59:18.305Z,97518.71
